Thunder radar more information blitzortung!


Radar de pluja more information rain snow radar


Visita la nostra xarxa de llocs de meteo:

Template documentation
and downloads

And another site



No particular awareness of the weather is required.    There are no Weather-warnings

Pagina Historial Weather Underground text

Diari Resum Setembre 26, 2017 Unitats:  Imperial    Mètric   Tant
« Previous Dia
SegĂźent Dia »
Diari Setmana Mensual Anual Personalitzada
  Maxima: Minima: Media:
Temperatura: TemperatureC °F 14.7 °F 20.6 °F
Punt de rosada: DewpointC °F 11.4 °F 12.9 °F
Humitat: Humidity % 44 % 62 %
Wind Speed: WindSpeedKMH mph 0.0 mph 5.3 mph
RĂ fegues de vent: WindSpeedGustKMH mph - -
Vent:- - SSW
Pression baro: PressurehPa in 1017.8 in -
Precipitacions: 0.0 in    
Historical Graphs
 
 
Dades de taula per Setembre 26, 2017
Temps Temperatura Punt de rosada Pression baro Vent Wind Speed RĂ fegues de vent Humitat Rainfall Rate (Hourly)
TemperatureC °F DewpointC °F PressurehPa in Calm     Humidity % HourlyPrecipMM in
00:04 16.6 °F 12.6 °F 1021.9 in Calm     77 % 0.0 in
00:20 15.4 °F 12.2 °F 1020.9 in Calm     81 % 0.0 in
00:30 15.3 °F 12.1 °F 1020.9 in WSW 3.2 mph 4.8 mph 81 % 0.0 in
00:40 15.2 °F 11.9 °F 1020.9 in SW 3.2 mph 3.2 mph 81 % 0.0 in
00:50 15.1 °F 12.1 °F 1020.9 in Calm   4.8 mph 82 % 0.0 in
01:00 15.0 °F 11.9 °F 1019.9 in SW 3.2 mph 3.2 mph 82 % 0.0 in
01:10 15.0 °F 12.1 °F 1019.9 in SW 1.6 mph 4.8 mph 83 % 0.0 in
01:20 15.0 °F 12.1 °F 1019.9 in Calm   1.6 mph 83 % 0.0 in
01:30 15.0 °F 12.1 °F 1019.9 in SW 1.6 mph 3.2 mph 83 % 0.0 in
01:40 15.0 °F 12.1 °F 1020.9 in SW 3.2 mph 3.2 mph 83 % 0.0 in
01:45 15.0 °F 12.1 °F 1020.9 in WSW 1.6 mph 3.2 mph 83 % 0.0 in
01:55 15.0 °F 12.1 °F 1020.9 in Calm   3.2 mph 83 % 0.0 in
02:05 14.9 °F 12.1 °F 1020.9 in Calm   1.6 mph 83 % 0.0 in
02:15 14.8 °F 11.9 °F 1020.9 in Calm     83 % 0.0 in
02:25 14.9 °F 12.1 °F 1020.9 in Calm   1.6 mph 83 % 0.0 in
02:35 14.9 °F 11.8 °F 1020.9 in NW 1.6 mph 3.2 mph 82 % 0.0 in
02:45 14.9 °F 11.8 °F 1020.9 in West 1.6 mph 3.2 mph 82 % 0.0 in
02:55 14.9 °F 11.8 °F 1020.9 in Calm   1.6 mph 82 % 0.0 in
03:05 14.7 °F 11.4 °F 1020.9 in WSW 1.6 mph 3.2 mph 81 % 0.0 in
03:15 14.8 °F 11.8 °F 1021.9 in Calm   3.2 mph 82 % 0.0 in
03:25 15.0 °F 11.8 °F 1021.9 in SW 1.6 mph 3.2 mph 81 % 0.0 in
03:35 15.4 °F 12.2 °F 1021.9 in Calm   3.2 mph 81 % 0.0 in
03:45 15.6 °F 12.3 °F 1021.9 in Calm   3.2 mph 81 % 0.0 in
03:55 16.4 °F 12.9 °F 1021.9 in South 1.6 mph 3.2 mph 80 % 0.0 in
04:05 16.1 °F 12.4 °F 1021.9 in Calm   3.2 mph 79 % 0.0 in
04:15 17.1 °F 13.2 °F 1021.9 in SW 1.6 mph 3.2 mph 78 % 0.0 in
04:25 17.3 °F 13.2 °F 1021.9 in South 3.2 mph 3.2 mph 77 % 0.0 in
04:35 17.3 °F 13.0 °F 1021.9 in SW 1.6 mph 3.2 mph 76 % 0.0 in
04:45 18.2 °F 13.7 °F 1021.9 in WSW 3.2 mph 3.2 mph 75 % 0.0 in
04:55 18.3 °F 13.6 °F 1021.9 in ENE 1.6 mph 4.8 mph 74 % 0.0 in
05:05 18.5 °F 13.3 °F 1021.9 in ENE 3.2 mph 3.2 mph 72 % 0.0 in
05:15 19.0 °F 13.6 °F 1020.9 in ENE 4.8 mph 6.4 mph 71 % 0.0 in
05:25 19.2 °F 13.8 °F 1021.9 in NE 4.8 mph 4.8 mph 71 % 0.0 in
05:35 19.5 °F 13.9 °F 1021.9 in NE 1.6 mph 6.4 mph 70 % 0.0 in
05:45 20.2 °F 14.1 °F 1021.9 in NE 1.6 mph 3.2 mph 68 % 0.0 in
05:55 19.9 °F 13.6 °F 1021.9 in ENE 3.2 mph 6.4 mph 67 % 0.0 in
06:05 20.4 °F 13.8 °F 1021.9 in East 3.2 mph 4.8 mph 66 % 0.0 in
11:10 20.8 °F 14.0 °F 1021.9 in NE 5.3 mph 5.3 mph 65 % 0.0 in
11:15 20.6 °F 13.8 °F 1021.9 in ENE 3.7 mph 4.2 mph 65 % 0.0 in
11:20 20.9 °F 13.8 °F 1020.9 in ESE 5.6 mph 5.6 mph 64 % 0.0 in
11:25 21.2 °F 13.9 °F 1020.9 in East 5.6 mph 5.6 mph 63 % 0.0 in
11:30 21.4 °F 14.1 °F 1020.9 in ESE 5.8 mph 5.8 mph 63 % 0.0 in
11:35 21.4 °F 14.1 °F 1020.9 in SSE 5.6 mph 5.6 mph 63 % 0.0 in
11:40 21.8 °F 14.2 °F 1020.9 in ESE 7.4 mph 7.4 mph 62 % 0.0 in
11:45 22.2 °F 14.3 °F 1020.9 in NNE 3.7 mph 3.9 mph 61 % 0.0 in
11:50 21.8 °F 13.9 °F 1021.9 in NNE 5.6 mph 5.6 mph 61 % 0.0 in
11:55 21.6 °F 13.8 °F 1021.9 in ESE 7.4 mph 7.4 mph 61 % 0.0 in
12:00 21.8 °F 13.9 °F 1021.9 in ESE 3.7 mph 3.7 mph 61 % 0.0 in
12:05 22.1 °F 13.9 °F 1021.9 in ESE 3.7 mph   60 % 0.0 in
12:10 22.5 °F 14.3 °F 1021.9 in NNE 5.6 mph 5.6 mph 60 % 0.0 in
12:15 22.3 °F 13.9 °F 1021.9 in ESE 7.4 mph 7.4 mph 59 % 0.0 in
12:20 22.5 °F 14.1 °F 1021.9 in ESE 7.4 mph 7.4 mph 59 % 0.0 in
12:25 22.8 °F 14.4 °F 1021.9 in ESE 5.6 mph 5.6 mph 59 % 0.0 in
12:30 22.9 °F 14.4 °F 1021.9 in NW 3.7 mph 3.7 mph 59 % 0.0 in
12:35 23.2 °F 14.5 °F 1021.9 in SSW 3.7 mph 3.7 mph 58 % 0.0 in
12:40 23.3 °F 14.6 °F 1021.9 in WSW 2.6 mph 3.2 mph 58 % 0.0 in
12:45 23.7 °F 15.2 °F 1021.9 in SW 9.3 mph 9.3 mph 59 % 0.0 in
12:50 23.9 °F 14.3 °F 1021.9 in WSW 3.7 mph 3.7 mph 55 % 0.0 in
12:55 24.4 °F 15.1 °F 1021.9 in WNW 9.3 mph 9.3 mph 56 % 0.0 in
13:00 24.5 °F 14.9 °F 1021.9 in West 9.3 mph 9.3 mph 55 % 0.0 in
13:01 24.5 °F 14.9 °F 1020.9 in SW 9.5 mph 9.5 mph 55 % 0.0 in
13:06 24.6 °F 14.7 °F 1020.9 in WNW 5.6 mph 5.6 mph 54 % 0.0 in
13:11 24.6 °F 14.4 °F 1020.9 in WNW 9.3 mph 9.3 mph 53 % 0.0 in
13:16 23.9 °F 14.0 °F 1020.9 in SW 5.6 mph 5.6 mph 54 % 0.0 in
13:21 23.7 °F 13.8 °F 1020.9 in SSW 5.6 mph 5.6 mph 54 % 0.0 in
13:26 23.9 °F 14.0 °F 1020.9 in SW 7.4 mph 7.4 mph 54 % 0.0 in
13:31 24.5 °F 14.3 °F 1020.9 in WSW 9.3 mph 9.3 mph 53 % 0.0 in
13:36 24.8 °F 14.6 °F 1020.9 in SSW 9.3 mph 9.3 mph 53 % 0.0 in
13:46 25.0 °F 13.8 °F 1019.9 in SW 7.4 mph 7.4 mph 50 % 0.0 in
13:51 24.5 °F 13.7 °F 1019.9 in SSW 5.6 mph 5.6 mph 51 % 0.0 in
13:56 24.9 °F 13.8 °F 1019.9 in WSW 6.4 mph 6.4 mph 50 % 0.0 in
14:01 24.5 °F 13.4 °F 1019.9 in SW 11.1 mph 11.1 mph 50 % 0.0 in
14:06 24.3 °F 13.2 °F 1019.9 in WSW 13.0 mph 13.0 mph 50 % 0.0 in
14:11 24.5 °F 13.1 °F 1019.9 in SSW 9.3 mph 9.3 mph 49 % 0.0 in
14:16 25.1 °F 13.6 °F 1019.9 in SSW 9.5 mph 9.5 mph 49 % 0.0 in
14:21 25.1 °F 13.3 °F 1019.9 in South 5.6 mph 5.6 mph 48 % 0.0 in
14:26 25.1 °F 13.3 °F 1019.9 in WSW 7.4 mph 7.4 mph 48 % 0.0 in
14:31 25.2 °F 13.4 °F 1019.9 in WSW 7.4 mph 7.4 mph 48 % 0.0 in
14:36 25.1 °F 13.0 °F 1019.9 in SSW 7.4 mph 7.4 mph 47 % 0.0 in
14:41 25.2 °F 13.1 °F 1019.9 in SW 7.4 mph 7.4 mph 47 % 0.0 in
14:46 25.0 °F 12.9 °F 1018.8 in South 9.3 mph 9.3 mph 47 % 0.0 in
14:51 25.3 °F 13.2 °F 1018.8 in SW 7.4 mph 7.4 mph 47 % 0.0 in
14:56 24.8 °F 13.1 °F 1018.8 in SW 16.7 mph 16.7 mph 48 % 0.0 in
15:01 24.3 °F 12.6 °F 1018.8 in WSW 14.8 mph 14.8 mph 48 % 0.0 in
15:06 24.6 °F 12.8 °F 1018.8 in South 11.1 mph 11.1 mph 48 % 0.0 in
15:11 24.3 °F 12.6 °F 1018.8 in SW 13.0 mph 13.0 mph 48 % 0.0 in
15:16 24.9 °F 13.1 °F 1018.8 in WSW 9.5 mph 9.5 mph 48 % 0.0 in
15:21 25.0 °F 12.9 °F 1018.8 in SW 10.0 mph 10.0 mph 47 % 0.0 in
15:26 24.9 °F 12.8 °F 1018.8 in SW 18.5 mph 18.5 mph 47 % 0.0 in
15:31 25.4 °F 12.9 °F 1018.8 in South 7.4 mph 7.4 mph 46 % 0.0 in
15:36 25.7 °F 13.2 °F 1018.8 in West 9.3 mph 9.3 mph 46 % 0.0 in
15:41 25.7 °F 13.2 °F 1018.8 in SW 13.0 mph 13.0 mph 46 % 0.0 in
15:46 25.3 °F 12.5 °F 1018.8 in SW 9.3 mph 9.3 mph 45 % 0.0 in
15:51 25.6 °F 12.8 °F 1018.8 in SW 13.0 mph 13.0 mph 45 % 0.0 in
15:56 25.6 °F 12.8 °F 1018.8 in SSW 13.0 mph 13.0 mph 45 % 0.0 in
16:01 25.8 °F 12.9 °F 1018.8 in WSW 12.6 mph 12.6 mph 45 % 0.0 in
16:06 25.6 °F 12.8 °F 1018.8 in SSW 9.3 mph 12.6 mph 45 % 0.0 in
16:11 25.1 °F 12.0 °F 1018.8 in SSW 20.4 mph 20.4 mph 44 % 0.0 in
16:16 25.4 °F 12.3 °F 1018.8 in WSW 7.4 mph 7.4 mph 44 % 0.0 in
16:21 25.3 °F 12.2 °F 1018.8 in WSW 14.8 mph 14.8 mph 44 % 0.0 in
16:26 24.9 °F 12.2 °F 1018.8 in WSW 13.0 mph 13.0 mph 45 % 0.0 in
16:31 24.7 °F 11.9 °F 1018.8 in SW 13.0 mph 13.0 mph 45 % 0.0 in
16:36 24.3 °F 11.6 °F 1018.8 in SSW 6.9 mph 6.9 mph 45 % 0.0 in
16:41 24.1 °F 11.8 °F 1018.8 in SW 14.8 mph 14.8 mph 46 % 0.0 in
16:46 24.0 °F 11.7 °F 1018.8 in SW 10.0 mph 10.0 mph 46 % 0.0 in
16:51 24.0 °F 11.7 °F 1018.8 in SSW 14.8 mph 14.8 mph 46 % 0.0 in
16:56 23.7 °F 11.7 °F 1018.8 in West 13.0 mph 13.0 mph 47 % 0.0 in
17:01 23.7 °F 11.7 °F 1018.8 in SSE 9.3 mph 9.3 mph 47 % 0.0 in
17:06 23.8 °F 11.8 °F 1018.8 in South 5.6 mph 5.6 mph 47 % 0.0 in
17:11 23.5 °F 11.6 °F 1018.8 in SSW 7.4 mph 7.4 mph 47 % 0.0 in
17:16 23.3 °F 11.7 °F 1018.8 in SW 14.8 mph 14.8 mph 48 % 0.0 in
17:21 23.4 °F 11.8 °F 1018.8 in SW 13.0 mph 13.0 mph 48 % 0.0 in
17:27 23.4 °F 11.8 °F 1018.8 in SSW 16.7 mph 16.7 mph 48 % 0.0 in
17:32 23.5 °F 11.8 °F 1017.8 in SW 9.3 mph 9.3 mph 48 % 0.0 in
17:37 23.6 °F 11.9 °F 1017.8 in WSW 14.0 mph 14.0 mph 48 % 0.0 in
17:42 23.2 °F 11.9 °F 1017.8 in SSW 9.3 mph 9.3 mph 49 % 0.0 in
17:47 23.1 °F 11.8 °F 1018.8 in WSW 11.1 mph 11.1 mph 49 % 0.0 in
17:52 22.8 °F 11.8 °F 1018.8 in SSW 14.8 mph 14.8 mph 50 % 0.0 in
17:57 22.6 °F 11.9 °F 1018.8 in SSW 7.4 mph 7.4 mph 51 % 0.0 in
18:02 22.4 °F 11.8 °F 1018.8 in SSW 11.1 mph 11.1 mph 51 % 0.0 in
18:07 22.4 °F 11.8 °F 1018.8 in SW 7.4 mph 7.4 mph 51 % 0.0 in
18:12 22.2 °F 11.9 °F 1018.8 in SW 10.0 mph 10.0 mph 52 % 0.0 in
18:17 22.0 °F 11.7 °F 1018.8 in WSW 16.7 mph 16.7 mph 52 % 0.0 in
18:22 21.8 °F 11.8 °F 1018.8 in SSW 15.1 mph 15.1 mph 53 % 0.0 in
18:27 21.6 °F 11.6 °F 1018.8 in SSW 11.1 mph 11.1 mph 53 % 0.0 in
18:32 21.4 °F 11.7 °F 1018.8 in West 9.3 mph 9.3 mph 54 % 0.0 in
18:37 21.3 °F 11.6 °F 1018.8 in West 9.7 mph 9.7 mph 54 % 0.0 in
18:42 21.3 °F 11.9 °F 1018.8 in WSW 5.6 mph 5.6 mph 55 % 0.0 in
18:47 21.2 °F 12.1 °F 1018.8 in SSW 13.0 mph 13.0 mph 56 % 0.0 in
18:52 21.1 °F 12.0 °F 1018.8 in SW 6.1 mph 6.1 mph 56 % 0.0 in
18:57 21.1 °F 12.2 °F 1018.8 in SSW 7.4 mph 7.4 mph 57 % 0.0 in
19:02 21.1 °F 12.2 °F 1019.9 in South 7.4 mph 7.4 mph 57 % 0.0 in
19:07 21.1 °F 12.2 °F 1019.9 in SSW 9.3 mph 9.3 mph 57 % 0.0 in
19:12 21.1 °F 12.2 °F 1019.9 in SSW 5.6 mph 5.6 mph 57 % 0.0 in
19:17 21.2 °F 12.3 °F 1019.9 in SW 7.4 mph 7.4 mph 57 % 0.0 in
19:22 21.2 °F 12.6 °F 1019.9 in WSW 3.7 mph 3.7 mph 58 % 0.0 in
19:25 19.2 °F 13.6 °F 1022.9 in SW 1.6 mph 3.2 mph 70 % 0.0 in
19:27 21.2 °F 12.6 °F 1019.9 in SW 5.8 mph 5.8 mph 58 % 0.0 in
19:32 21.1 °F 12.5 °F 1019.9 in West 9.5 mph 9.5 mph 58 % 0.0 in
19:35 19.1 °F 13.5 °F 1022.9 in SW 1.6 mph 3.2 mph 70 % 0.0 in
19:37 21.0 °F 12.4 °F 1019.9 in SSE 5.6 mph 5.6 mph 58 % 0.0 in
19:42 20.9 °F 12.3 °F 1019.9 in SSW 7.4 mph 7.4 mph 58 % 0.0 in
19:45 19.1 °F 13.7 °F 1022.9 in SW 1.6 mph 1.6 mph 71 % 0.0 in
19:47 20.7 °F 12.4 °F 1019.9 in SW 2.6 mph 2.6 mph 59 % 0.0 in
19:52 20.6 °F 12.3 °F 1019.9 in SSW 3.7 mph 3.7 mph 59 % 0.0 in
19:55 19.1 °F 13.7 °F 1022.9 in WSW 1.6 mph 1.6 mph 71 % 0.0 in
19:57 20.5 °F 12.2 °F 1019.9 in WSW 3.7 mph 3.7 mph 59 % 0.0 in
20:02 20.5 °F 12.4 °F 1019.9 in SSW 3.7 mph 3.7 mph 60 % 0.0 in
20:05 19.2 °F 13.8 °F 1022.9 in Calm   1.6 mph 71 % 0.0 in
20:07 20.5 °F 12.4 °F 1019.9 in WSW 4.2 mph 4.2 mph 60 % 0.0 in
20:12 20.5 °F 12.4 °F 1019.9 in SW 1.9 mph   60 % 0.0 in
20:15 19.1 °F 13.7 °F 1022.9 in Calm   3.2 mph 71 % 0.0 in
20:17 20.4 °F 12.6 °F 1020.9 in WSW 3.7 mph 3.7 mph 61 % 0.0 in
20:22 20.4 °F 12.6 °F 1020.9 in SW 3.7 mph 3.7 mph 61 % 0.0 in
20:25 19.1 °F 13.7 °F 1022.9 in WSW 1.6 mph 1.6 mph 71 % 0.0 in
20:27 20.4 °F 12.6 °F 1020.9 in SW 1.9 mph   61 % 0.0 in
20:32 20.4 °F 12.6 °F 1021.9 in SW 9.3 mph 9.3 mph 61 % 0.0 in
20:35 19.1 °F 13.7 °F 1022.9 in WSW 1.6 mph 3.2 mph 71 % 0.0 in
20:37 20.3 °F 12.6 °F 1021.9 in SSW 4.7 mph 4.7 mph 61 % 0.0 in
20:42 20.3 °F 12.8 °F 1021.9 in SW 4.7 mph 4.7 mph 62 % 0.0 in
20:45 18.9 °F 13.7 °F 1022.9 in West 1.6 mph 4.8 mph 72 % 0.0 in
20:47 20.2 °F 12.7 °F 1021.9 in SSW 7.4 mph 7.4 mph 62 % 0.0 in
20:52 20.1 °F 12.6 °F 1021.9 in SW 3.7 mph 3.7 mph 62 % 0.0 in
20:55 18.7 °F 13.6 °F 1022.9 in Calm   4.8 mph 72 % 0.0 in
20:57 20.1 °F 12.8 °F 1021.9 in Calm     63 % 0.0 in
21:02 20.1 °F 12.8 °F 1021.9 in SW 1.9 mph 1.9 mph 63 % 0.0 in
21:05 18.6 °F 13.4 °F 1022.9 in Calm     72 % 0.0 in
21:07 20.0 °F 12.7 °F 1021.9 in SW 5.6 mph 5.6 mph 63 % 0.0 in
21:12 20.0 °F 12.7 °F 1021.9 in SW 3.7 mph 3.7 mph 63 % 0.0 in
21:15 18.4 °F 13.3 °F 1022.9 in Calm     72 % 0.0 in
21:17 20.0 °F 13.0 °F 1020.9 in SW 3.7 mph 3.7 mph 64 % 0.0 in
21:22 20.0 °F 13.0 °F 1020.9 in SSW 1.9 mph   64 % 0.0 in
21:25 18.2 °F 13.3 °F 1022.9 in Calm   1.6 mph 73 % 0.0 in
21:27 20.0 °F 13.0 °F 1020.9 in WSW 2.3 mph 2.3 mph 64 % 0.0 in
21:32 19.9 °F 13.1 °F 1021.9 in SW 3.7 mph 3.7 mph 65 % 0.0 in
21:35 18.0 °F 13.1 °F 1022.9 in Calm     73 % 0.0 in
21:37 19.9 °F 13.3 °F 1021.9 in SW 2.3 mph 2.3 mph 66 % 0.0 in
21:42 19.8 °F 13.3 °F 1021.9 in WNW 3.5 mph 3.9 mph 66 % 0.0 in
21:45 17.8 °F 13.1 °F 1022.9 in Calm     74 % 0.0 in
21:47 19.7 °F 12.9 °F 1021.9 in SW 4.7 mph 4.7 mph 65 % 0.0 in
21:52 19.7 °F 13.2 °F 1021.9 in WSW 3.7 mph 3.7 mph 66 % 0.0 in
21:55 17.6 °F 12.9 °F 1022.9 in Calm     74 % 0.0 in
21:57 19.6 °F 13.3 °F 1021.9 in SW 1.4 mph   67 % 0.0 in
22:02 19.5 °F 13.2 °F 1021.9 in SW 2.3 mph 2.3 mph 67 % 0.0 in
22:05 17.5 °F 13.0 °F 1022.9 in Calm     75 % 0.0 in
22:07 19.5 °F 13.2 °F 1021.9 in SW 3.7 mph 3.7 mph 67 % 0.0 in
22:12 19.4 °F 13.1 °F 1021.9 in SW 5.6 mph 5.6 mph 67 % 0.0 in
22:15 17.3 °F 12.8 °F 1022.9 in WSW 1.6 mph 3.2 mph 75 % 0.0 in
22:17 19.3 °F 13.0 °F 1021.9 in SW 1.9 mph 1.9 mph 67 % 0.0 in
22:22 19.3 °F 13.2 °F 1021.9 in WSW 1.9 mph   68 % 0.0 in
22:25 17.3 °F 13.0 °F 1021.9 in Calm     76 % 0.0 in
22:27 19.2 °F 13.2 °F 1021.9 in WSW 1.9 mph   68 % 0.0 in
22:32 19.2 °F 13.2 °F 1022.9 in West 1.9 mph   68 % 0.0 in
22:35 17.3 °F 13.0 °F 1021.9 in Calm     76 % 0.0 in
22:37 19.2 °F 13.4 °F 1022.9 in Calm     69 % 0.0 in
22:42 19.2 °F 13.4 °F 1022.9 in WSW 1.9 mph 1.9 mph 69 % 0.0 in
22:45 17.0 °F 12.7 °F 1021.9 in West 1.6 mph 3.2 mph 76 % 0.0 in
22:47 19.2 °F 13.4 °F 1022.9 in West 1.9 mph   69 % 0.0 in
22:52 19.2 °F 13.4 °F 1022.9 in Calm     69 % 0.0 in
22:55 17.0 °F 12.7 °F 1021.9 in Calm   1.6 mph 76 % 0.0 in
22:57 19.2 °F 13.4 °F 1022.9 in SW 1.9 mph   69 % 0.0 in
23:02 19.2 °F 13.4 °F 1022.9 in West 1.9 mph 1.9 mph 69 % 0.0 in
23:05 16.8 °F 12.9 °F 1021.9 in SSW 1.6 mph 1.6 mph 78 % 0.0 in
23:07 19.2 °F 13.4 °F 1022.9 in WSW 3.7 mph 3.7 mph 69 % 0.0 in
23:12 19.3 °F 13.4 °F 1022.9 in SW 3.7 mph 3.7 mph 69 % 0.0 in
23:15 16.8 °F 12.9 °F 1021.9 in Calm   1.6 mph 78 % 0.0 in
23:17 19.3 °F 13.4 °F 1022.9 in WSW 3.5 mph 3.5 mph 69 % 0.0 in
23:22 19.3 °F 13.7 °F 1022.9 in WSW 2.6 mph 2.6 mph 70 % 0.0 in
23:25 16.7 °F 12.8 °F 1021.9 in Calm     78 % 0.0 in
23:27 19.3 °F 13.7 °F 1022.9 in SW 1.9 mph   70 % 0.0 in
23:32 19.2 °F 13.6 °F 1022.9 in WNW 1.9 mph   70 % 0.0 in
23:35 16.8 °F 12.9 °F 1021.9 in Calm   1.6 mph 78 % 0.0 in
23:37 19.2 °F 13.6 °F 1022.9 in SW 3.7 mph 3.7 mph 70 % 0.0 in
23:42 19.2 °F 13.6 °F 1022.9 in WSW 1.9 mph 1.9 mph 70 % 0.0 in
23:45 16.8 °F 13.1 °F 1021.9 in Calm     79 % 0.0 in
23:47 19.2 °F 13.6 °F 1022.9 in WSW 1.9 mph 1.9 mph 70 % 0.0 in
23:52 19.2 °F 13.6 °F 1022.9 in WSW 1.9 mph   70 % 0.0 in
23:55 16.7 °F 13.1 °F 1021.9 in Calm   3.2 mph 79 % 0.0 in
23:57 19.2 °F 13.6 °F 1022.9 in SW 3.7 mph 3.7 mph 70 % 0.0 in
Meteo Sesrovires
Elogis d' Weather Underground - 1.5 mb

Guio original per  Jim McMurry - jmcmurry@mwt.net Adaptat per a la plantilla per  Wim van der Kuil - Leuven-Template.eu

Trobareu la nostra informacio del temps tambe a:

Weather Underground

AWEKAS